sensor_id;sensor_type;location;lat;lon;timestamp;P1;durP1;ratioP1;P2;durP2;ratioP2
18905;SDS011;9585;51.018;4.282;2023-05-07T00:01:05;7.10;;;4.78;;
18905;SDS011;9585;51.018;4.282;2023-05-07T00:03:32;8.73;;;4.78;;
18905;SDS011;9585;51.018;4.282;2023-05-07T00:06:00;6.40;;;4.40;;
18905;SDS011;9585;51.018;4.282;2023-05-07T00:08:28;7.72;;;4.57;;
18905;SDS011;9585;51.018;4.282;2023-05-07T00:10:55;5.15;;;4.53;;
18905;SDS011;9585;51.018;4.282;2023-05-07T00:13:24;7.60;;;4.63;;
18905;SDS011;9585;51.018;4.282;2023-05-07T00:15:52;5.10;;;3.75;;
18905;SDS011;9585;51.018;4.282;2023-05-07T00:18:20;7.05;;;4.70;;
18905;SDS011;9585;51.018;4.282;2023-05-07T00:20:47;6.45;;;4.10;;
18905;SDS011;9585;51.018;4.282;2023-05-07T00:23:15;4.78;;;3.70;;
18905;SDS011;9585;51.018;4.282;2023-05-07T00:25:42;4.53;;;4.07;;
18905;SDS011;9585;51.018;4.282;2023-05-07T00:28:10;5.85;;;4.55;;
18905;SDS011;9585;51.018;4.282;2023-05-07T00:30:39;5.68;;;4.07;;
18905;SDS011;9585;51.018;4.282;2023-05-07T00:33:07;5.15;;;4.22;;
18905;SDS011;9585;51.018;4.282;2023-05-07T00:35:34;6.15;;;4.43;;
18905;SDS011;9585;51.018;4.282;2023-05-07T00:38:02;5.20;;;4.47;;
18905;SDS011;9585;51.018;4.282;2023-05-07T00:40:29;5.18;;;4.32;;
18905;SDS011;9585;51.018;4.282;2023-05-07T00:42:57;5.50;;;4.00;;
18905;SDS011;9585;51.018;4.282;2023-05-07T00:45:25;5.45;;;4.10;;
18905;SDS011;9585;51.018;4.282;2023-05-07T00:47:56;4.68;;;3.83;;
18905;SDS011;9585;51.018;4.282;2023-05-07T00:50:25;5.10;;;4.15;;
18905;SDS011;9585;51.018;4.282;2023-05-07T00:52:54;7.15;;;4.95;;
18905;SDS011;9585;51.018;4.282;2023-05-07T00:55:22;5.15;;;4.20;;
18905;SDS011;9585;51.018;4.282;2023-05-07T00:57:51;4.80;;;4.30;;
18905;SDS011;9585;51.018;4.282;2023-05-07T01:00:19;5.82;;;4.20;;
18905;SDS011;9585;51.018;4.282;2023-05-07T01:02:46;5.10;;;4.20;;
18905;SDS011;9585;51.018;4.282;2023-05-07T01:05:17;6.97;;;4.53;;
18905;SDS011;9585;51.018;4.282;2023-05-07T01:07:47;7.47;;;5.50;;
18905;SDS011;9585;51.018;4.282;2023-05-07T01:10:16;7.03;;;5.13;;
18905;SDS011;9585;51.018;4.282;2023-05-07T01:12:44;5.72;;;4.80;;
18905;SDS011;9585;51.018;4.282;2023-05-07T01:15:13;7.05;;;4.95;;
18905;SDS011;9585;51.018;4.282;2023-05-07T01:17:41;7.28;;;5.18;;
18905;SDS011;9585;51.018;4.282;2023-05-07T01:20:10;6.25;;;4.70;;
18905;SDS011;9585;51.018;4.282;2023-05-07T01:22:40;6.82;;;4.95;;
18905;SDS011;9585;51.018;4.282;2023-05-07T01:25:09;6.07;;;4.85;;
18905;SDS011;9585;51.018;4.282;2023-05-07T01:27:37;4.95;;;4.25;;
18905;SDS011;9585;51.018;4.282;2023-05-07T01:30:05;6.00;;;4.53;;
18905;SDS011;9585;51.018;4.282;2023-05-07T01:32:36;5.13;;;4.20;;
18905;SDS011;9585;51.018;4.282;2023-05-07T01:35:11;6.50;;;4.72;;
18905;SDS011;9585;51.018;4.282;2023-05-07T01:37:43;6.28;;;4.38;;
18905;SDS011;9585;51.018;4.282;2023-05-07T01:40:13;4.63;;;4.13;;
18905;SDS011;9585;51.018;4.282;2023-05-07T01:42:41;6.95;;;4.53;;
18905;SDS011;9585;51.018;4.282;2023-05-07T01:45:10;6.00;;;4.88;;
18905;SDS011;9585;51.018;4.282;2023-05-07T01:47:38;5.35;;;4.85;;
18905;SDS011;9585;51.018;4.282;2023-05-07T01:50:07;5.13;;;4.60;;
18905;SDS011;9585;51.018;4.282;2023-05-07T01:52:36;5.40;;;4.55;;
18905;SDS011;9585;51.018;4.282;2023-05-07T01:55:07;4.85;;;4.20;;
18905;SDS011;9585;51.018;4.282;2023-05-07T01:57:34;5.90;;;4.45;;
18905;SDS011;9585;51.018;4.282;2023-05-07T02:00:02;6.82;;;4.60;;
18905;SDS011;9585;51.018;4.282;2023-05-07T02:02:30;7.07;;;5.15;;
18905;SDS011;9585;51.018;4.282;2023-05-07T02:04:59;7.07;;;5.13;;
18905;SDS011;9585;51.018;4.282;2023-05-07T02:07:27;6.57;;;5.00;;
18905;SDS011;9585;51.018;4.282;2023-05-07T02:09:55;6.97;;;6.13;;
18905;SDS011;9585;51.018;4.282;2023-05-07T02:12:24;9.10;;;5.75;;
18905;SDS011;9585;51.018;4.282;2023-05-07T02:14:51;7.18;;;5.40;;
18905;SDS011;9585;51.018;4.282;2023-05-07T02:17:20;7.78;;;5.72;;
18905;SDS011;9585;51.018;4.282;2023-05-07T02:19:47;7.20;;;5.80;;
18905;SDS011;9585;51.018;4.282;2023-05-07T02:25:46;5.90;;;5.20;;
18905;SDS011;9585;51.018;4.282;2023-05-07T02:28:16;5.65;;;4.95;;
18905;SDS011;9585;51.018;4.282;2023-05-07T02:30:44;5.05;;;4.55;;
18905;SDS011;9585;51.018;4.282;2023-05-07T02:33:11;8.32;;;5.95;;
18905;SDS011;9585;51.018;4.282;2023-05-07T02:35:39;7.90;;;5.40;;
18905;SDS011;9585;51.018;4.282;2023-05-07T02:38:07;5.80;;;5.05;;
18905;SDS011;9585;51.018;4.282;2023-05-07T02:40:36;7.60;;;5.35;;
18905;SDS011;9585;51.018;4.282;2023-05-07T02:43:05;7.65;;;6.03;;
18905;SDS011;9585;51.018;4.282;2023-05-07T02:45:34;7.40;;;6.45;;
18905;SDS011;9585;51.018;4.282;2023-05-07T02:48:02;7.30;;;5.68;;
18905;SDS011;9585;51.018;4.282;2023-05-07T02:50:30;7.10;;;5.90;;
18905;SDS011;9585;51.018;4.282;2023-05-07T02:52:58;6.53;;;5.68;;
18905;SDS011;9585;51.018;4.282;2023-05-07T02:55:26;5.78;;;5.18;;
18905;SDS011;9585;51.018;4.282;2023-05-07T02:57:53;5.90;;;5.28;;
18905;SDS011;9585;51.018;4.282;2023-05-07T03:00:21;5.63;;;5.00;;
18905;SDS011;9585;51.018;4.282;2023-05-07T03:02:50;6.20;;;5.28;;
18905;SDS011;9585;51.018;4.282;2023-05-07T03:05:18;5.85;;;5.32;;
18905;SDS011;9585;51.018;4.282;2023-05-07T03:07:45;6.35;;;5.50;;
18905;SDS011;9585;51.018;4.282;2023-05-07T03:10:13;5.97;;;5.35;;
18905;SDS011;9585;51.018;4.282;2023-05-07T03:12:40;5.18;;;4.68;;
18905;SDS011;9585;51.018;4.282;2023-05-07T03:15:08;5.53;;;5.00;;
18905;SDS011;9585;51.018;4.282;2023-05-07T03:17:37;7.43;;;6.20;;
18905;SDS011;9585;51.018;4.282;2023-05-07T03:20:07;8.23;;;6.50;;
18905;SDS011;9585;51.018;4.282;2023-05-07T03:22:36;6.95;;;6.10;;
18905;SDS011;9585;51.018;4.282;2023-05-07T03:25:04;6.88;;;6.03;;
18905;SDS011;9585;51.018;4.282;2023-05-07T03:27:32;7.10;;;6.38;;
18905;SDS011;9585;51.018;4.282;2023-05-07T03:30:00;6.60;;;5.97;;
18905;SDS011;9585;51.018;4.282;2023-05-07T03:32:27;7.80;;;6.90;;
18905;SDS011;9585;51.018;4.282;2023-05-07T03:34:55;9.98;;;7.18;;
18905;SDS011;9585;51.018;4.282;2023-05-07T03:37:24;7.57;;;6.18;;
18905;SDS011;9585;51.018;4.282;2023-05-07T03:39:51;6.43;;;5.82;;
18905;SDS011;9585;51.018;4.282;2023-05-07T03:42:19;6.72;;;5.90;;
18905;SDS011;9585;51.018;4.282;2023-05-07T03:44:46;6.30;;;5.68;;
18905;SDS011;9585;51.018;4.282;2023-05-07T03:47:14;6.57;;;5.95;;
18905;SDS011;9585;51.018;4.282;2023-05-07T03:49:42;7.28;;;6.35;;
18905;SDS011;9585;51.018;4.282;2023-05-07T03:52:18;6.60;;;5.88;;
18905;SDS011;9585;51.018;4.282;2023-05-07T03:54:51;6.50;;;5.85;;
18905;SDS011;9585;51.018;4.282;2023-05-07T03:57:19;7.18;;;6.47;;
18905;SDS011;9585;51.018;4.282;2023-05-07T03:59:47;8.25;;;7.00;;
18905;SDS011;9585;51.018;4.282;2023-05-07T04:02:14;7.18;;;6.47;;
18905;SDS011;9585;51.018;4.282;2023-05-07T04:04:42;5.95;;;5.25;;
18905;SDS011;9585;51.018;4.282;2023-05-07T04:07:10;6.93;;;6.32;;
18905;SDS011;9585;51.018;4.282;2023-05-07T04:09:37;6.78;;;6.13;;
18905;SDS011;9585;51.018;4.282;2023-05-07T04:12:06;5.95;;;5.30;;
18905;SDS011;9585;51.018;4.282;2023-05-07T04:14:34;7.07;;;6.38;;
18905;SDS011;9585;51.018;4.282;2023-05-07T04:17:01;8.05;;;7.05;;
18905;SDS011;9585;51.018;4.282;2023-05-07T04:19:29;6.20;;;5.60;;
18905;SDS011;9585;51.018;4.282;2023-05-07T04:21:57;7.53;;;6.63;;
18905;SDS011;9585;51.018;4.282;2023-05-07T04:24:24;8.57;;;7.15;;
18905;SDS011;9585;51.018;4.282;2023-05-07T04:26:52;6.90;;;6.20;;
18905;SDS011;9585;51.018;4.282;2023-05-07T04:29:22;9.55;;;8.35;;
18905;SDS011;9585;51.018;4.282;2023-05-07T04:31:49;11.88;;;8.45;;
18905;SDS011;9585;51.018;4.282;2023-05-07T04:34:17;8.55;;;7.72;;
18905;SDS011;9585;51.018;4.282;2023-05-07T04:36:44;8.75;;;7.63;;
18905;SDS011;9585;51.018;4.282;2023-05-07T04:39:13;8.98;;;8.18;;
18905;SDS011;9585;51.018;4.282;2023-05-07T04:41:41;9.52;;;7.63;;
18905;SDS011;9585;51.018;4.282;2023-05-07T04:44:08;8.10;;;7.30;;
18905;SDS011;9585;51.018;4.282;2023-05-07T04:46:37;7.55;;;6.85;;
18905;SDS011;9585;51.018;4.282;2023-05-07T04:49:05;7.22;;;6.50;;
18905;SDS011;9585;51.018;4.282;2023-05-07T04:51:33;7.43;;;6.72;;
18905;SDS011;9585;51.018;4.282;2023-05-07T04:54:00;7.82;;;7.03;;
18905;SDS011;9585;51.018;4.282;2023-05-07T04:56:28;6.35;;;5.65;;
18905;SDS011;9585;51.018;4.282;2023-05-07T04:58:55;8.05;;;7.32;;
18905;SDS011;9585;51.018;4.282;2023-05-07T05:01:23;7.25;;;6.60;;
18905;SDS011;9585;51.018;4.282;2023-05-07T05:03:52;7.22;;;6.50;;
18905;SDS011;9585;51.018;4.282;2023-05-07T05:06:19;7.00;;;6.30;;
18905;SDS011;9585;51.018;4.282;2023-05-07T05:08:47;6.90;;;6.13;;
18905;SDS011;9585;51.018;4.282;2023-05-07T05:11:15;5.93;;;5.43;;
18905;SDS011;9585;51.018;4.282;2023-05-07T05:13:42;5.72;;;5.13;;
18905;SDS011;9585;51.018;4.282;2023-05-07T05:16:10;8.10;;;7.30;;
18905;SDS011;9585;51.018;4.282;2023-05-07T05:18:37;9.23;;;7.82;;
18905;SDS011;9585;51.018;4.282;2023-05-07T05:21:28;7.40;;;6.70;;
18905;SDS011;9585;51.018;4.282;2023-05-07T05:24:11;7.63;;;6.88;;
18905;SDS011;9585;51.018;4.282;2023-05-07T05:26:40;7.57;;;6.85;;
18905;SDS011;9585;51.018;4.282;2023-05-07T05:29:08;8.18;;;7.43;;
18905;SDS011;9585;51.018;4.282;2023-05-07T05:31:35;8.02;;;7.18;;
18905;SDS011;9585;51.018;4.282;2023-05-07T05:34:03;8.43;;;7.63;;
18905;SDS011;9585;51.018;4.282;2023-05-07T05:36:32;8.88;;;7.97;;
18905;SDS011;9585;51.018;4.282;2023-05-07T05:39:00;8.25;;;7.47;;
18905;SDS011;9585;51.018;4.282;2023-05-07T05:41:27;8.40;;;7.55;;
18905;SDS011;9585;51.018;4.282;2023-05-07T05:43:55;8.00;;;7.20;;
18905;SDS011;9585;51.018;4.282;2023-05-07T05:46:22;7.95;;;6.45;;
18905;SDS011;9585;51.018;4.282;2023-05-07T05:48:50;8.02;;;7.32;;
18905;SDS011;9585;51.018;4.282;2023-05-07T05:51:17;7.88;;;7.07;;
18905;SDS011;9585;51.018;4.282;2023-05-07T05:53:47;9.05;;;8.10;;
18905;SDS011;9585;51.018;4.282;2023-05-07T05:56:15;12.00;;;10.20;;
18905;SDS011;9585;51.018;4.282;2023-05-07T05:58:42;10.80;;;9.70;;
18905;SDS011;9585;51.018;4.282;2023-05-07T06:01:10;10.52;;;9.52;;
18905;SDS011;9585;51.018;4.282;2023-05-07T06:03:37;11.20;;;9.88;;
18905;SDS011;9585;51.018;4.282;2023-05-07T06:06:05;9.40;;;8.50;;
18905;SDS011;9585;51.018;4.282;2023-05-07T06:08:35;7.68;;;6.97;;
18905;SDS011;9585;51.018;4.282;2023-05-07T06:11:04;9.73;;;8.25;;
18905;SDS011;9585;51.018;4.282;2023-05-07T06:13:32;8.88;;;7.88;;
18905;SDS011;9585;51.018;4.282;2023-05-07T06:16:00;8.90;;;8.00;;
18905;SDS011;9585;51.018;4.282;2023-05-07T06:18:30;10.30;;;8.98;;
18905;SDS011;9585;51.018;4.282;2023-05-07T06:20:57;10.13;;;8.27;;
18905;SDS011;9585;51.018;4.282;2023-05-07T06:23:25;9.48;;;8.48;;
18905;SDS011;9585;51.018;4.282;2023-05-07T06:25:52;8.93;;;8.05;;
18905;SDS011;9585;51.018;4.282;2023-05-07T06:28:22;7.20;;;6.60;;
18905;SDS011;9585;51.018;4.282;2023-05-07T06:30:53;7.95;;;7.15;;
18905;SDS011;9585;51.018;4.282;2023-05-07T06:33:20;7.95;;;7.15;;
18905;SDS011;9585;51.018;4.282;2023-05-07T06:35:48;7.65;;;6.95;;
18905;SDS011;9585;51.018;4.282;2023-05-07T06:38:18;9.18;;;8.27;;
18905;SDS011;9585;51.018;4.282;2023-05-07T06:40:49;8.63;;;7.50;;
18905;SDS011;9585;51.018;4.282;2023-05-07T06:43:17;8.85;;;7.88;;
18905;SDS011;9585;51.018;4.282;2023-05-07T06:45:46;8.45;;;7.65;;
18905;SDS011;9585;51.018;4.282;2023-05-07T06:48:13;8.30;;;7.50;;
18905;SDS011;9585;51.018;4.282;2023-05-07T06:50:41;9.02;;;7.55;;
18905;SDS011;9585;51.018;4.282;2023-05-07T06:53:09;8.15;;;7.28;;
18905;SDS011;9585;51.018;4.282;2023-05-07T06:55:37;9.52;;;7.72;;
18905;SDS011;9585;51.018;4.282;2023-05-07T06:58:08;9.15;;;8.10;;
18905;SDS011;9585;51.018;4.282;2023-05-07T07:00:36;11.98;;;9.60;;
18905;SDS011;9585;51.018;4.282;2023-05-07T07:03:05;9.98;;;8.32;;
18905;SDS011;9585;51.018;4.282;2023-05-07T07:05:33;7.75;;;6.93;;
18905;SDS011;9585;51.018;4.282;2023-05-07T07:08:00;9.95;;;7.85;;
18905;SDS011;9585;51.018;4.282;2023-05-07T07:10:28;8.00;;;7.18;;
18905;SDS011;9585;51.018;4.282;2023-05-07T07:12:55;8.73;;;6.20;;
18905;SDS011;9585;51.018;4.282;2023-05-07T07:15:23;7.35;;;6.63;;
18905;SDS011;9585;51.018;4.282;2023-05-07T07:17:51;6.15;;;5.55;;
18905;SDS011;9585;51.018;4.282;2023-05-07T07:20:20;7.90;;;6.82;;
18905;SDS011;9585;51.018;4.282;2023-05-07T07:22:48;7.15;;;6.45;;
18905;SDS011;9585;51.018;4.282;2023-05-07T07:25:15;7.60;;;6.53;;
18905;SDS011;9585;51.018;4.282;2023-05-07T07:27:43;6.30;;;5.35;;
18905;SDS011;9585;51.018;4.282;2023-05-07T07:30:12;5.95;;;5.10;;
18905;SDS011;9585;51.018;4.282;2023-05-07T07:32:40;7.00;;;5.88;;
18905;SDS011;9585;51.018;4.282;2023-05-07T07:35:08;8.43;;;5.82;;
18905;SDS011;9585;51.018;4.282;2023-05-07T07:37:37;7.65;;;5.18;;
18905;SDS011;9585;51.018;4.282;2023-05-07T07:40:05;6.63;;;4.88;;
18905;SDS011;9585;51.018;4.282;2023-05-07T07:42:34;6.30;;;4.63;;
18905;SDS011;9585;51.018;4.282;2023-05-07T07:45:02;10.40;;;5.43;;
18905;SDS011;9585;51.018;4.282;2023-05-07T07:47:30;7.72;;;4.80;;
18905;SDS011;9585;51.018;4.282;2023-05-07T07:49:57;4.80;;;4.07;;
18905;SDS011;9585;51.018;4.282;2023-05-07T07:52:25;6.40;;;4.70;;
18905;SDS011;9585;51.018;4.282;2023-05-07T07:54:53;5.35;;;4.20;;
18905;SDS011;9585;51.018;4.282;2023-05-07T07:57:21;5.60;;;4.15;;
18905;SDS011;9585;51.018;4.282;2023-05-07T07:59:49;6.28;;;4.50;;
18905;SDS011;9585;51.018;4.282;2023-05-07T08:02:16;8.07;;;5.30;;
18905;SDS011;9585;51.018;4.282;2023-05-07T08:04:44;8.02;;;5.07;;
18905;SDS011;9585;51.018;4.282;2023-05-07T08:07:12;5.18;;;4.05;;
18905;SDS011;9585;51.018;4.282;2023-05-07T08:09:40;7.13;;;4.72;;
18905;SDS011;9585;51.018;4.282;2023-05-07T08:12:09;5.75;;;4.30;;
18905;SDS011;9585;51.018;4.282;2023-05-07T08:14:36;5.85;;;4.32;;
18905;SDS011;9585;51.018;4.282;2023-05-07T08:17:04;7.10;;;4.30;;
18905;SDS011;9585;51.018;4.282;2023-05-07T08:19:31;6.88;;;4.53;;
18905;SDS011;9585;51.018;4.282;2023-05-07T08:21:59;5.57;;;3.92;;
18905;SDS011;9585;51.018;4.282;2023-05-07T08:24:27;8.38;;;4.57;;
18905;SDS011;9585;51.018;4.282;2023-05-07T08:26:55;4.85;;;3.67;;
18905;SDS011;9585;51.018;4.282;2023-05-07T08:29:26;7.50;;;4.43;;
18905;SDS011;9585;51.018;4.282;2023-05-07T08:31:56;5.78;;;4.07;;
18905;SDS011;9585;51.018;4.282;2023-05-07T08:34:24;5.50;;;3.42;;
18905;SDS011;9585;51.018;4.282;2023-05-07T08:36:52;5.00;;;3.13;;
18905;SDS011;9585;51.018;4.282;2023-05-07T08:39:20;7.82;;;3.88;;
18905;SDS011;9585;51.018;4.282;2023-05-07T08:41:48;5.32;;;3.90;;
18905;SDS011;9585;51.018;4.282;2023-05-07T08:44:16;4.15;;;3.20;;
18905;SDS011;9585;51.018;4.282;2023-05-07T08:46:53;4.28;;;3.00;;
18905;SDS011;9585;51.018;4.282;2023-05-07T08:49:23;7.05;;;3.92;;
18905;SDS011;9585;51.018;4.282;2023-05-07T08:51:51;7.63;;;3.80;;
18905;SDS011;9585;51.018;4.282;2023-05-07T08:54:19;5.80;;;3.30;;
18905;SDS011;9585;51.018;4.282;2023-05-07T08:56:48;4.22;;;2.80;;
18905;SDS011;9585;51.018;4.282;2023-05-07T08:59:16;4.53;;;2.70;;
18905;SDS011;9585;51.018;4.282;2023-05-07T09:01:44;4.82;;;2.90;;
18905;SDS011;9585;51.018;4.282;2023-05-07T09:04:14;5.72;;;3.00;;
18905;SDS011;9585;51.018;4.282;2023-05-07T09:06:44;3.67;;;2.78;;
18905;SDS011;9585;51.018;4.282;2023-05-07T09:09:14;3.88;;;2.40;;
18905;SDS011;9585;51.018;4.282;2023-05-07T09:11:44;3.67;;;2.28;;
18905;SDS011;9585;51.018;4.282;2023-05-07T09:14:12;3.80;;;2.38;;
18905;SDS011;9585;51.018;4.282;2023-05-07T09:16:40;4.03;;;2.38;;
18905;SDS011;9585;51.018;4.282;2023-05-07T09:19:07;4.10;;;2.80;;
18905;SDS011;9585;51.018;4.282;2023-05-07T09:21:36;3.70;;;2.53;;
18905;SDS011;9585;51.018;4.282;2023-05-07T09:24:05;3.60;;;2.22;;
18905;SDS011;9585;51.018;4.282;2023-05-07T09:26:32;3.38;;;2.42;;
18905;SDS011;9585;51.018;4.282;2023-05-07T09:29:00;2.88;;;2.22;;
18905;SDS011;9585;51.018;4.282;2023-05-07T09:31:28;3.58;;;2.78;;
18905;SDS011;9585;51.018;4.282;2023-05-07T09:33:55;3.97;;;2.95;;
18905;SDS011;9585;51.018;4.282;2023-05-07T09:36:23;4.53;;;2.72;;
18905;SDS011;9585;51.018;4.282;2023-05-07T09:38:52;3.25;;;2.53;;
18905;SDS011;9585;51.018;4.282;2023-05-07T09:41:21;6.03;;;3.97;;
18905;SDS011;9585;51.018;4.282;2023-05-07T09:43:52;5.72;;;3.60;;
18905;SDS011;9585;51.018;4.282;2023-05-07T09:46:20;4.38;;;3.08;;
18905;SDS011;9585;51.018;4.282;2023-05-07T09:48:52;5.28;;;3.00;;
18905;SDS011;9585;51.018;4.282;2023-05-07T09:51:24;6.40;;;3.70;;
18905;SDS011;9585;51.018;4.282;2023-05-07T09:53:58;4.88;;;3.40;;
18905;SDS011;9585;51.018;4.282;2023-05-07T09:56:28;4.82;;;2.90;;
18905;SDS011;9585;51.018;4.282;2023-05-07T09:58:57;4.95;;;3.17;;
18905;SDS011;9585;51.018;4.282;2023-05-07T10:01:27;3.38;;;2.40;;
18905;SDS011;9585;51.018;4.282;2023-05-07T10:03:57;3.60;;;2.80;;
18905;SDS011;9585;51.018;4.282;2023-05-07T10:06:25;3.65;;;2.40;;
18905;SDS011;9585;51.018;4.282;2023-05-07T10:08:54;4.72;;;2.72;;
18905;SDS011;9585;51.018;4.282;2023-05-07T10:11:23;5.18;;;2.85;;
18905;SDS011;9585;51.018;4.282;2023-05-07T10:13:51;4.68;;;2.50;;
18905;SDS011;9585;51.018;4.282;2023-05-07T10:16:19;4.63;;;3.20;;
18905;SDS011;9585;51.018;4.282;2023-05-07T10:18:48;4.53;;;3.28;;
18905;SDS011;9585;51.018;4.282;2023-05-07T10:21:18;5.30;;;3.17;;
18905;SDS011;9585;51.018;4.282;2023-05-07T10:23:48;3.65;;;2.80;;
18905;SDS011;9585;51.018;4.282;2023-05-07T10:26:17;3.33;;;2.40;;
18905;SDS011;9585;51.018;4.282;2023-05-07T10:28:58;3.35;;;2.03;;
18905;SDS011;9585;51.018;4.282;2023-05-07T10:31:44;5.05;;;2.30;;
18905;SDS011;9585;51.018;4.282;2023-05-07T10:34:21;4.10;;;2.63;;
18905;SDS011;9585;51.018;4.282;2023-05-07T10:36:52;3.08;;;2.40;;
18905;SDS011;9585;51.018;4.282;2023-05-07T10:39:22;3.40;;;2.42;;
18905;SDS011;9585;51.018;4.282;2023-05-07T10:41:50;4.88;;;2.42;;
18905;SDS011;9585;51.018;4.282;2023-05-07T10:44:26;4.85;;;2.75;;
18905;SDS011;9585;51.018;4.282;2023-05-07T10:52:44;2.90;;;2.30;;
18905;SDS011;9585;51.018;4.282;2023-05-07T10:55:21;3.92;;;2.58;;
18905;SDS011;9585;51.018;4.282;2023-05-07T10:57:50;4.15;;;2.25;;
18905;SDS011;9585;51.018;4.282;2023-05-07T11:03:11;4.28;;;1.95;;
18905;SDS011;9585;51.018;4.282;2023-05-07T11:05:40;2.78;;;1.77;;
18905;SDS011;9585;51.018;4.282;2023-05-07T11:08:08;3.88;;;2.38;;
18905;SDS011;9585;51.018;4.282;2023-05-07T11:10:49;3.78;;;2.08;;
18905;SDS011;9585;51.018;4.282;2023-05-07T11:13:18;3.10;;;2.10;;
18905;SDS011;9585;51.018;4.282;2023-05-07T11:16:03;2.92;;;1.90;;
18905;SDS011;9585;51.018;4.282;2023-05-07T11:18:46;3.92;;;2.50;;
18905;SDS011;9585;51.018;4.282;2023-05-07T11:24:01;5.63;;;3.45;;
18905;SDS011;9585;51.018;4.282;2023-05-07T11:26:30;4.00;;;2.42;;
18905;SDS011;9585;51.018;4.282;2023-05-07T11:28:58;3.08;;;2.00;;
18905;SDS011;9585;51.018;4.282;2023-05-07T11:31:29;2.38;;;1.80;;
18905;SDS011;9585;51.018;4.282;2023-05-07T11:33:57;3.78;;;2.00;;
18905;SDS011;9585;51.018;4.282;2023-05-07T11:36:25;3.80;;;2.10;;
18905;SDS011;9585;51.018;4.282;2023-05-07T11:38:58;3.10;;;2.33;;
18905;SDS011;9585;51.018;4.282;2023-05-07T11:41:33;3.60;;;2.70;;
18905;SDS011;9585;51.018;4.282;2023-05-07T11:44:02;3.60;;;2.33;;
18905;SDS011;9585;51.018;4.282;2023-05-07T11:46:42;5.75;;;3.13;;
18905;SDS011;9585;51.018;4.282;2023-05-07T11:49:10;2.50;;;2.30;;
18905;SDS011;9585;51.018;4.282;2023-05-07T11:51:38;3.33;;;2.33;;
18905;SDS011;9585;51.018;4.282;2023-05-07T11:54:07;4.32;;;2.55;;
18905;SDS011;9585;51.018;4.282;2023-05-07T11:56:37;3.92;;;2.55;;
18905;SDS011;9585;51.018;4.282;2023-05-07T11:59:04;3.40;;;2.30;;
18905;SDS011;9585;51.018;4.282;2023-05-07T12:01:34;3.50;;;2.20;;
18905;SDS011;9585;51.018;4.282;2023-05-07T12:04:03;4.60;;;2.15;;
18905;SDS011;9585;51.018;4.282;2023-05-07T12:06:31;3.60;;;2.58;;
18905;SDS011;9585;51.018;4.282;2023-05-07T12:09:02;2.90;;;1.98;;
18905;SDS011;9585;51.018;4.282;2023-05-07T12:11:32;3.53;;;2.00;;
18905;SDS011;9585;51.018;4.282;2023-05-07T12:14:00;3.33;;;2.10;;
18905;SDS011;9585;51.018;4.282;2023-05-07T12:16:29;3.67;;;1.80;;
18905;SDS011;9585;51.018;4.282;2023-05-07T12:19:01;2.70;;;2.20;;
18905;SDS011;9585;51.018;4.282;2023-05-07T12:21:29;3.35;;;2.40;;
18905;SDS011;9585;51.018;4.282;2023-05-07T12:23:57;3.13;;;2.83;;
18905;SDS011;9585;51.018;4.282;2023-05-07T12:26:25;5.15;;;3.17;;
18905;SDS011;9585;51.018;4.282;2023-05-07T12:28:52;4.32;;;2.80;;
18905;SDS011;9585;51.018;4.282;2023-05-07T12:31:20;2.67;;;2.00;;
18905;SDS011;9585;51.018;4.282;2023-05-07T12:33:48;3.13;;;2.20;;
18905;SDS011;9585;51.018;4.282;2023-05-07T12:36:17;3.60;;;2.25;;
18905;SDS011;9585;51.018;4.282;2023-05-07T12:38:46;2.88;;;1.80;;
18905;SDS011;9585;51.018;4.282;2023-05-07T12:41:16;2.05;;;1.50;;
18905;SDS011;9585;51.018;4.282;2023-05-07T12:43:44;4.30;;;2.30;;
18905;SDS011;9585;51.018;4.282;2023-05-07T12:46:12;3.42;;;1.70;;
18905;SDS011;9585;51.018;4.282;2023-05-07T12:48:43;3.58;;;1.60;;
18905;SDS011;9585;51.018;4.282;2023-05-07T12:51:12;3.97;;;1.73;;
18905;SDS011;9585;51.018;4.282;2023-05-07T12:53:42;2.13;;;1.60;;
18905;SDS011;9585;51.018;4.282;2023-05-07T12:56:10;2.45;;;1.70;;
18905;SDS011;9585;51.018;4.282;2023-05-07T12:58:39;2.45;;;1.60;;
18905;SDS011;9585;51.018;4.282;2023-05-07T13:01:12;3.38;;;1.90;;
18905;SDS011;9585;51.018;4.282;2023-05-07T13:03:40;2.97;;;1.90;;
18905;SDS011;9585;51.018;4.282;2023-05-07T13:06:10;2.42;;;1.67;;
18905;SDS011;9585;51.018;4.282;2023-05-07T13:08:48;3.00;;;1.80;;
18905;SDS011;9585;51.018;4.282;2023-05-07T13:11:22;4.68;;;1.80;;
18905;SDS011;9585;51.018;4.282;2023-05-07T13:13:50;2.33;;;2.08;;
18905;SDS011;9585;51.018;4.282;2023-05-07T13:16:18;2.40;;;1.77;;
18905;SDS011;9585;51.018;4.282;2023-05-07T13:18:45;2.05;;;1.73;;
18905;SDS011;9585;51.018;4.282;2023-05-07T13:21:13;2.50;;;1.92;;
18905;SDS011;9585;51.018;4.282;2023-05-07T13:23:41;1.80;;;1.70;;
18905;SDS011;9585;51.018;4.282;2023-05-07T13:26:10;1.90;;;1.63;;
18905;SDS011;9585;51.018;4.282;2023-05-07T13:28:37;2.92;;;1.77;;
18905;SDS011;9585;51.018;4.282;2023-05-07T13:31:05;2.25;;;1.60;;
18905;SDS011;9585;51.018;4.282;2023-05-07T13:33:34;3.53;;;2.30;;
18905;SDS011;9585;51.018;4.282;2023-05-07T13:36:02;3.00;;;1.98;;
18905;SDS011;9585;51.018;4.282;2023-05-07T13:38:33;2.95;;;1.98;;
18905;SDS011;9585;51.018;4.282;2023-05-07T13:41:01;1.75;;;1.55;;
18905;SDS011;9585;51.018;4.282;2023-05-07T13:43:36;2.10;;;1.88;;
18905;SDS011;9585;51.018;4.282;2023-05-07T13:46:08;3.03;;;2.05;;
18905;SDS011;9585;51.018;4.282;2023-05-07T13:48:36;4.25;;;2.20;;
18905;SDS011;9585;51.018;4.282;2023-05-07T13:51:04;2.42;;;1.98;;
18905;SDS011;9585;51.018;4.282;2023-05-07T13:53:31;2.30;;;2.10;;
18905;SDS011;9585;51.018;4.282;2023-05-07T13:55:59;2.10;;;1.90;;
18905;SDS011;9585;51.018;4.282;2023-05-07T13:58:26;2.33;;;2.05;;
18905;SDS011;9585;51.018;4.282;2023-05-07T14:00:55;2.28;;;2.03;;
18905;SDS011;9585;51.018;4.282;2023-05-07T14:03:23;2.88;;;2.28;;
18905;SDS011;9585;51.018;4.282;2023-05-07T14:05:51;3.15;;;2.60;;
18905;SDS011;9585;51.018;4.282;2023-05-07T14:08:18;3.03;;;2.67;;
18905;SDS011;9585;51.018;4.282;2023-05-07T14:10:46;3.08;;;2.88;;
18905;SDS011;9585;51.018;4.282;2023-05-07T14:13:13;3.00;;;2.80;;
18905;SDS011;9585;51.018;4.282;2023-05-07T14:15:41;3.40;;;3.10;;
18905;SDS011;9585;51.018;4.282;2023-05-07T14:18:13;3.20;;;2.90;;
18905;SDS011;9585;51.018;4.282;2023-05-07T14:20:40;3.17;;;2.88;;
18905;SDS011;9585;51.018;4.282;2023-05-07T14:23:08;3.15;;;2.85;;
18905;SDS011;9585;51.018;4.282;2023-05-07T14:25:36;3.47;;;3.17;;
18905;SDS011;9585;51.018;4.282;2023-05-07T14:28:03;2.70;;;2.50;;
18905;SDS011;9585;51.018;4.282;2023-05-07T14:30:31;2.70;;;2.50;;
18905;SDS011;9585;51.018;4.282;2023-05-07T14:32:58;3.13;;;2.42;;
18905;SDS011;9585;51.018;4.282;2023-05-07T14:35:27;2.03;;;1.88;;
18905;SDS011;9585;51.018;4.282;2023-05-07T14:37:54;2.25;;;2.03;;
18905;SDS011;9585;51.018;4.282;2023-05-07T14:40:22;2.97;;;2.20;;
18905;SDS011;9585;51.018;4.282;2023-05-07T14:42:49;2.33;;;1.88;;
18905;SDS011;9585;51.018;4.282;2023-05-07T14:45:17;2.22;;;2.00;;
18905;SDS011;9585;51.018;4.282;2023-05-07T14:47:44;2.55;;;1.63;;
18905;SDS011;9585;51.018;4.282;2023-05-07T14:50:12;2.85;;;2.00;;
18905;SDS011;9585;51.018;4.282;2023-05-07T14:52:41;2.63;;;1.80;;
18905;SDS011;9585;51.018;4.282;2023-05-07T14:55:08;2.38;;;1.92;;
18905;SDS011;9585;51.018;4.282;2023-05-07T14:57:36;1.73;;;1.63;;
18905;SDS011;9585;51.018;4.282;2023-05-07T15:00:04;1.73;;;1.50;;
18905;SDS011;9585;51.018;4.282;2023-05-07T15:02:33;2.15;;;1.45;;
18905;SDS011;9585;51.018;4.282;2023-05-07T15:05:01;2.00;;;1.50;;
18905;SDS011;9585;51.018;4.282;2023-05-07T15:07:29;2.55;;;1.83;;
18905;SDS011;9585;51.018;4.282;2023-05-07T15:09:59;3.22;;;2.05;;
18905;SDS011;9585;51.018;4.282;2023-05-07T15:12:27;2.72;;;1.88;;
18905;SDS011;9585;51.018;4.282;2023-05-07T15:14:54;2.38;;;1.83;;
18905;SDS011;9585;51.018;4.282;2023-05-07T15:17:22;1.98;;;1.80;;
18905;SDS011;9585;51.018;4.282;2023-05-07T15:19:49;3.35;;;1.83;;
18905;SDS011;9585;51.018;4.282;2023-05-07T15:22:17;2.22;;;1.95;;
18905;SDS011;9585;51.018;4.282;2023-05-07T15:24:44;2.03;;;1.90;;